createdAt,value
2018-04-14T00:00:42.041Z,0.00
2018-04-14T00:01:42.031Z,0.00
2018-04-14T00:02:42.017Z,0.00
2018-04-14T00:03:42.007Z,0.00
2018-04-14T00:04:41.997Z,0.00
2018-04-14T00:05:41.981Z,0.00
2018-04-14T00:06:41.969Z,0.00
2018-04-14T00:07:41.956Z,0.00
2018-04-14T00:08:41.940Z,0.00
2018-04-14T00:09:41.924Z,0.00
2018-04-14T00:10:41.910Z,0.00
2018-04-14T00:11:41.896Z,0.00
2018-04-14T00:12:41.892Z,0.00
2018-04-14T00:13:41.876Z,0.00
2018-04-14T00:14:41.860Z,0.00
2018-04-14T00:15:41.845Z,0.00
2018-04-14T00:16:41.829Z,0.00
2018-04-14T00:17:41.823Z,0.00
2018-04-14T00:18:41.839Z,0.00
2018-04-14T00:19:41.796Z,0.00
2018-04-14T00:20:41.778Z,0.00
2018-04-14T00:21:41.769Z,0.00
2018-04-14T00:22:41.756Z,0.00
2018-04-14T00:23:41.753Z,0.00
2018-04-14T00:24:41.728Z,0.00
2018-04-14T00:25:41.711Z,0.00
2018-04-14T00:26:41.692Z,0.00
2018-04-14T00:27:41.690Z,0.00
2018-04-14T00:28:41.673Z,0.00
2018-04-14T00:29:41.666Z,0.00
2018-04-14T00:30:41.642Z,0.00
2018-04-14T00:31:41.631Z,0.00
2018-04-14T00:32:41.621Z,0.00
2018-04-14T00:33:41.609Z,0.00
2018-04-14T00:34:41.593Z,0.00
2018-04-14T00:35:41.583Z,0.00
2018-04-14T00:36:41.569Z,0.00
2018-04-14T00:37:41.563Z,0.00
2018-04-14T00:38:41.543Z,0.00
2018-04-14T00:39:41.543Z,0.00
2018-04-14T00:40:41.520Z,0.00
2018-04-14T00:41:41.502Z,0.00
2018-04-14T00:42:41.488Z,0.00
2018-04-14T00:43:41.478Z,0.00
2018-04-14T00:44:41.462Z,0.00
2018-04-14T00:45:41.454Z,0.00
2018-04-14T00:46:41.436Z,0.00
2018-04-14T00:47:41.434Z,0.00
2018-04-14T00:48:41.417Z,0.00
2018-04-14T00:49:41.397Z,0.00
2018-04-14T00:50:41.383Z,0.00
2018-04-14T00:51:41.366Z,0.00
2018-04-14T00:52:41.350Z,0.00
2018-04-14T00:53:41.344Z,0.00
2018-04-14T00:54:41.330Z,0.00
2018-04-14T00:55:41.315Z,0.00
2018-04-14T00:56:41.304Z,0.00
2018-04-14T00:57:41.289Z,0.00
2018-04-14T00:58:41.279Z,0.00
2018-04-14T00:59:41.265Z,0.00
2018-04-14T01:00:41.253Z,0.00
2018-04-14T01:01:41.243Z,0.00
2018-04-14T01:02:41.225Z,0.00
2018-04-14T01:03:41.211Z,0.00
2018-04-14T01:04:41.196Z,0.00
2018-04-14T01:05:41.188Z,0.00
2018-04-14T01:06:41.175Z,0.00
2018-04-14T01:07:41.159Z,0.00
2018-04-14T01:08:41.149Z,0.00
2018-04-14T01:09:41.131Z,0.00
2018-04-14T01:10:41.120Z,0.00
2018-04-14T01:11:41.108Z,0.00
2018-04-14T01:12:41.097Z,0.00
2018-04-14T01:13:41.086Z,0.00
2018-04-14T01:14:41.072Z,0.00
2018-04-14T01:15:41.064Z,0.00
2018-04-14T01:16:41.042Z,0.00
2018-04-14T01:17:41.034Z,0.00
2018-04-14T01:18:41.014Z,0.00
2018-04-14T01:19:41.004Z,0.00
2018-04-14T01:20:40.984Z,0.00
2018-04-14T01:21:40.976Z,0.00
2018-04-14T01:22:40.990Z,0.00
2018-04-14T01:23:40.956Z,0.00
2018-04-14T01:24:40.941Z,0.00
2018-04-14T01:25:40.928Z,0.00
2018-04-14T01:26:40.915Z,0.00
2018-04-14T01:27:40.901Z,0.00
2018-04-14T01:28:40.890Z,0.00
2018-04-14T01:29:40.874Z,0.00
2018-04-14T01:30:40.861Z,0.00
2018-04-14T01:31:40.840Z,0.00
2018-04-14T01:32:40.836Z,0.00
2018-04-14T01:33:40.822Z,0.00
2018-04-14T01:34:40.805Z,0.00
2018-04-14T01:35:40.797Z,0.00
2018-04-14T01:36:40.790Z,0.00
2018-04-14T01:37:40.772Z,0.00
2018-04-14T01:38:40.759Z,0.00
2018-04-14T01:39:40.739Z,0.00
2018-04-14T01:40:40.736Z,0.00
2018-04-14T01:41:40.714Z,0.00
2018-04-14T01:42:40.700Z,0.00
2018-04-14T01:43:40.690Z,0.00
2018-04-14T01:44:40.676Z,0.00
2018-04-14T01:45:40.666Z,0.00
2018-04-14T01:46:40.649Z,0.00
2018-04-14T01:47:40.634Z,0.00
2018-04-14T01:48:40.626Z,0.00
2018-04-14T01:49:40.627Z,0.00
2018-04-14T01:50:40.594Z,0.00
2018-04-14T01:51:40.585Z,0.00
2018-04-14T01:52:40.567Z,0.00
2018-04-14T01:53:40.554Z,0.00
2018-04-14T01:54:40.543Z,0.00
2018-04-14T01:55:40.530Z,0.00
2018-04-14T01:56:40.518Z,0.00
2018-04-14T01:57:40.497Z,0.00
2018-04-14T01:58:40.502Z,0.00
2018-04-14T01:59:40.476Z,0.00
2018-04-14T02:00:40.459Z,0.00
2018-04-14T02:01:40.449Z,0.00
2018-04-14T02:02:40.433Z,0.00
2018-04-14T02:03:40.423Z,0.00
2018-04-14T02:04:40.406Z,0.00
2018-04-14T02:05:40.395Z,0.00
2018-04-14T02:06:40.381Z,0.00
2018-04-14T02:07:40.364Z,0.00
2018-04-14T02:08:40.358Z,0.00
2018-04-14T02:09:40.339Z,0.00
2018-04-14T02:10:40.327Z,0.00
2018-04-14T02:11:40.321Z,0.00
2018-04-14T02:12:40.298Z,0.00
2018-04-14T02:13:40.294Z,0.00
2018-04-14T02:14:40.276Z,0.00
2018-04-14T02:15:40.265Z,0.00
2018-04-14T02:16:40.249Z,0.00
2018-04-14T02:17:40.231Z,0.00
2018-04-14T02:18:40.235Z,0.00
2018-04-14T02:19:40.209Z,0.00
2018-04-14T02:20:40.203Z,0.00
2018-04-14T02:21:40.177Z,0.00
2018-04-14T02:22:40.163Z,0.00
2018-04-14T02:23:40.153Z,0.00
2018-04-14T02:24:40.138Z,0.00
2018-04-14T02:25:40.127Z,0.00
2018-04-14T02:26:40.112Z,0.00
2018-04-14T02:27:40.100Z,0.00
2018-04-14T02:28:40.090Z,0.00
2018-04-14T02:29:40.070Z,0.00
2018-04-14T02:30:40.065Z,0.00
2018-04-14T02:31:40.047Z,0.00
2018-04-14T02:32:40.033Z,0.00
2018-04-14T02:33:40.016Z,0.00
2018-04-14T02:34:40.005Z,0.00
2018-04-14T02:35:39.989Z,0.00
2018-04-14T02:36:39.979Z,0.00
2018-04-14T02:37:39.969Z,0.00
2018-04-14T02:38:39.955Z,0.00
2018-04-14T02:39:39.940Z,0.00
2018-04-14T02:40:39.928Z,0.00
2018-04-14T02:41:39.910Z,0.00
2018-04-14T02:42:39.895Z,0.00
2018-04-14T02:43:39.893Z,0.00
2018-04-14T02:44:39.868Z,0.00
2018-04-14T02:45:39.863Z,0.00
2018-04-14T02:46:39.853Z,0.00
2018-04-14T02:47:39.827Z,0.00
2018-04-14T02:48:39.847Z,0.00
2018-04-14T02:49:39.802Z,0.00
2018-04-14T02:50:39.798Z,0.00
2018-04-14T02:51:39.783Z,0.00
2018-04-14T02:52:39.762Z,0.00
2018-04-14T02:53:39.745Z,0.00
2018-04-14T02:54:39.732Z,0.00
2018-04-14T02:55:39.725Z,0.00
2018-04-14T02:56:39.711Z,0.00
2018-04-14T02:57:39.694Z,0.00
2018-04-14T02:58:39.688Z,0.00
2018-04-14T02:59:39.669Z,0.00
2018-04-14T03:00:39.651Z,0.00
2018-04-14T03:01:39.642Z,0.00
2018-04-14T03:02:39.625Z,0.00
2018-04-14T03:03:39.611Z,0.00
2018-04-14T03:04:39.599Z,0.00
2018-04-14T03:05:39.587Z,0.00
2018-04-14T03:06:39.574Z,0.00
2018-04-14T03:07:39.561Z,0.00
2018-04-14T03:08:39.552Z,0.00
2018-04-14T03:09:39.542Z,0.00
2018-04-14T03:10:39.516Z,0.00
2018-04-14T03:11:39.503Z,0.00
2018-04-14T03:12:39.496Z,0.00
2018-04-14T03:13:39.478Z,0.00
2018-04-14T03:14:39.466Z,0.00
2018-04-14T03:15:39.453Z,0.00
2018-04-14T03:16:39.435Z,0.00
2018-04-14T03:17:39.422Z,0.00
2018-04-14T03:18:39.417Z,0.00
2018-04-14T03:19:39.406Z,0.00
2018-04-14T03:20:39.390Z,0.00
2018-04-14T03:21:39.372Z,0.00
2018-04-14T03:22:39.356Z,0.00
2018-04-14T03:23:39.345Z,0.00
2018-04-14T03:24:39.330Z,0.00
2018-04-14T03:25:39.321Z,0.00
2018-04-14T03:26:39.305Z,0.00
2018-04-14T03:27:39.289Z,0.00
2018-04-14T03:28:39.275Z,0.00
2018-04-14T03:29:39.271Z,0.00
2018-04-14T03:30:39.247Z,0.00
2018-04-14T03:31:39.239Z,0.00
2018-04-14T03:32:39.222Z,0.00
2018-04-14T03:33:39.206Z,0.00
2018-04-14T03:34:39.198Z,0.00
2018-04-14T03:35:39.189Z,0.00
2018-04-14T03:36:39.168Z,0.00
2018-04-14T03:37:39.149Z,0.00
2018-04-14T03:38:39.144Z,0.00
2018-04-14T03:39:39.130Z,0.00
2018-04-14T03:40:39.113Z,0.00
2018-04-14T03:41:39.101Z,0.00
2018-04-14T03:42:39.086Z,0.00
2018-04-14T03:43:39.072Z,0.00
2018-04-14T03:44:39.063Z,0.00
2018-04-14T03:45:39.042Z,0.00
2018-04-14T03:46:39.028Z,0.00
2018-04-14T03:47:39.020Z,0.00
2018-04-14T03:48:39.006Z,0.00
2018-04-14T03:49:38.990Z,0.00
2018-04-14T03:50:38.978Z,0.00
2018-04-14T03:51:38.991Z,0.00
2018-04-14T03:52:38.955Z,0.00
2018-04-14T03:53:38.937Z,0.00
2018-04-14T03:54:38.923Z,0.00
2018-04-14T03:55:38.907Z,0.00
2018-04-14T03:56:38.895Z,0.00
2018-04-14T03:57:38.883Z,0.00
2018-04-14T03:58:38.869Z,0.00
2018-04-14T03:59:38.864Z,0.00
2018-04-14T04:00:38.842Z,0.00
2018-04-14T04:01:38.830Z,0.00
2018-04-14T04:02:38.815Z,0.00
2018-04-14T04:03:38.804Z,0.00
2018-04-14T04:04:38.788Z,0.00
2018-04-14T04:05:38.774Z,0.00
2018-04-14T04:06:38.757Z,0.00
2018-04-14T04:07:38.743Z,0.00
2018-04-14T04:08:38.733Z,0.00
2018-04-14T04:09:38.729Z,0.00
2018-04-14T04:10:38.709Z,0.00
2018-04-14T04:11:38.699Z,0.00
2018-04-14T04:12:38.681Z,0.00
2018-04-14T04:13:38.667Z,0.00
2018-04-14T04:14:38.655Z,0.00
2018-04-14T04:15:38.658Z,0.00
2018-04-14T04:16:38.628Z,0.00
2018-04-14T04:17:38.614Z,0.00
2018-04-14T04:18:38.598Z,0.00
2018-04-14T04:19:38.584Z,4.00
2018-04-14T04:20:38.568Z,0.00
2018-04-14T04:21:38.560Z,0.00
2018-04-14T04:22:38.542Z,0.00
2018-04-14T04:23:38.531Z,4.00
2018-04-14T04:24:38.520Z,0.00
2018-04-14T04:25:38.505Z,4.00
2018-04-14T04:26:38.489Z,4.00
2018-04-14T04:27:38.479Z,4.00
2018-04-14T04:28:38.469Z,4.00
2018-04-14T04:29:38.458Z,4.00
2018-04-14T04:30:38.435Z,4.00
2018-04-14T04:31:38.422Z,4.00
2018-04-14T04:32:38.410Z,4.00
2018-04-14T04:33:38.394Z,4.00
2018-04-14T04:34:38.382Z,8.00
2018-04-14T04:35:38.368Z,8.00
2018-04-14T04:36:38.363Z,12.00
2018-04-14T04:37:38.340Z,12.00
2018-04-14T04:38:38.326Z,16.00
2018-04-14T04:39:38.318Z,16.00
2018-04-14T04:40:38.307Z,16.00
2018-04-14T04:41:38.281Z,16.00
2018-04-14T04:42:38.276Z,20.00
2018-04-14T04:43:38.263Z,20.00
2018-04-14T04:44:38.249Z,24.00
2018-04-14T04:45:38.233Z,24.00
2018-04-14T04:46:38.218Z,28.00
2018-04-14T04:47:38.206Z,32.00
2018-04-14T04:48:38.188Z,32.00
2018-04-14T04:49:38.186Z,36.00
2018-04-14T04:50:38.163Z,36.00
2018-04-14T04:51:38.148Z,40.00
2018-04-14T04:52:38.134Z,44.00
2018-04-14T04:53:38.124Z,48.00
2018-04-14T04:54:38.112Z,48.00
2018-04-14T04:55:38.100Z,52.00
2018-04-14T04:56:38.090Z,52.00
2018-04-14T04:57:38.071Z,52.00
2018-04-14T04:58:38.115Z,56.00
2018-04-14T04:59:38.045Z,56.00
2018-04-14T05:00:38.029Z,60.00
2018-04-14T05:01:38.015Z,56.00
2018-04-14T05:02:38.007Z,60.00
2018-04-14T05:03:37.990Z,64.00
2018-04-14T05:04:37.972Z,64.00
2018-04-14T05:05:37.958Z,64.00
2018-04-14T05:06:37.947Z,64.00
2018-04-14T05:07:37.933Z,64.00
2018-04-14T05:08:37.917Z,64.00
2018-04-14T05:09:37.908Z,68.00
2018-04-14T05:10:37.897Z,68.00
2018-04-14T05:11:37.880Z,68.00
2018-04-14T05:12:37.864Z,68.00
2018-04-14T05:13:37.847Z,68.00
2018-04-14T05:14:37.830Z,72.00
2018-04-14T05:15:37.822Z,72.00
2018-04-14T05:16:37.806Z,72.00
2018-04-14T05:17:37.806Z,76.00
2018-04-14T05:18:37.780Z,72.00
2018-04-14T05:19:37.771Z,72.00
2018-04-14T05:20:37.759Z,72.00
2018-04-14T05:21:37.763Z,76.00
2018-04-14T05:22:37.730Z,80.00
2018-04-14T05:23:37.709Z,80.00
2018-04-14T05:24:37.697Z,80.00
2018-04-14T05:25:37.691Z,88.00
2018-04-14T05:26:37.667Z,88.00
2018-04-14T05:27:37.660Z,88.00
2018-04-14T05:28:37.650Z,92.00
2018-04-14T05:29:37.624Z,92.00
2018-04-14T05:30:37.624Z,96.00
2018-04-14T05:31:37.596Z,92.00
2018-04-14T05:32:37.585Z,96.00
2018-04-14T05:33:37.576Z,100.00
2018-04-14T05:34:37.560Z,100.00
2018-04-14T05:35:37.550Z,104.00
2018-04-14T05:36:37.529Z,104.00
2018-04-14T05:37:37.517Z,108.00
2018-04-14T05:38:37.505Z,108.00
2018-04-14T05:39:37.493Z,108.00
2018-04-14T05:40:37.477Z,116.00
2018-04-14T05:41:37.468Z,116.00
2018-04-14T05:42:37.448Z,116.00
2018-04-14T05:43:37.433Z,116.00
2018-04-14T05:44:37.425Z,116.00
2018-04-14T05:45:37.409Z,116.00
2018-04-14T05:46:37.397Z,124.00
2018-04-14T05:47:37.379Z,124.00
2018-04-14T05:48:37.365Z,124.00
2018-04-14T05:49:37.352Z,124.00
2018-04-14T05:50:37.343Z,132.00
2018-04-14T05:51:37.329Z,132.00
2018-04-14T05:52:37.317Z,132.00
2018-04-14T05:53:37.304Z,132.00
2018-04-14T05:54:37.281Z,136.00
2018-04-14T05:55:37.268Z,136.00
2018-04-14T05:56:37.264Z,136.00
2018-04-14T05:57:37.244Z,136.00
2018-04-14T05:58:37.228Z,136.00
2018-04-14T05:59:37.221Z,140.00
2018-04-14T06:00:37.199Z,144.00
2018-04-14T06:01:37.191Z,144.00
2018-04-14T06:02:37.174Z,152.00
2018-04-14T06:03:37.161Z,148.00
2018-04-14T06:04:37.144Z,152.00
2018-04-14T06:05:37.136Z,152.00
2018-04-14T06:06:37.123Z,156.00
2018-04-14T06:07:37.106Z,160.00
2018-04-14T06:08:37.090Z,164.00
2018-04-14T06:09:37.082Z,168.00
2018-04-14T06:10:37.068Z,168.00
2018-04-14T06:11:37.053Z,172.00
2018-04-14T06:12:37.037Z,176.00
2018-04-14T06:13:37.025Z,176.00
2018-04-14T06:14:37.005Z,180.00
2018-04-14T06:15:36.995Z,176.00
2018-04-14T06:16:37.012Z,180.00
2018-04-14T06:17:36.970Z,180.00
2018-04-14T06:18:36.958Z,188.00
2018-04-14T06:19:36.948Z,188.00
2018-04-14T06:20:36.928Z,196.00
2018-04-14T06:21:36.920Z,196.00
2018-04-14T06:22:36.898Z,196.00
2018-04-14T06:23:36.890Z,196.00
2018-04-14T06:24:36.886Z,196.00
2018-04-14T06:25:36.865Z,200.00
2018-04-14T06:26:36.841Z,204.00
2018-04-14T06:27:36.843Z,208.00
2018-04-14T06:28:36.818Z,220.00
2018-04-14T06:29:36.811Z,256.00
2018-04-14T06:30:36.796Z,324.00
2018-04-14T06:31:36.773Z,452.00
2018-04-14T06:32:36.825Z,404.00
2018-04-14T06:33:36.756Z,436.00
2018-04-14T06:34:36.754Z,464.00
2018-04-14T06:35:36.721Z,484.00
2018-04-14T06:36:36.707Z,508.00
2018-04-14T06:37:36.694Z,516.00
2018-04-14T06:38:36.688Z,532.00
2018-04-14T06:39:36.675Z,536.00
2018-04-14T06:40:36.660Z,528.00
2018-04-14T06:41:36.653Z,568.00
2018-04-14T06:42:36.631Z,516.00
2018-04-14T06:43:36.617Z,496.00
2018-04-14T06:44:36.610Z,500.00
2018-04-14T06:45:36.589Z,528.00
2018-04-14T06:46:36.582Z,528.00
2018-04-14T06:47:36.570Z,548.00
2018-04-14T06:48:36.556Z,552.00
2018-04-14T06:49:36.540Z,568.00
2018-04-14T06:50:36.519Z,560.00
2018-04-14T06:51:36.517Z,584.00
2018-04-14T06:52:36.500Z,596.00
2018-04-14T06:53:36.493Z,620.00
2018-04-14T06:54:36.480Z,648.00
2018-04-14T06:55:36.458Z,676.00
2018-04-14T06:56:36.448Z,700.00
2018-04-14T06:57:36.440Z,708.00
2018-04-14T06:58:36.424Z,724.00
2018-04-14T06:59:36.412Z,744.00
2018-04-14T07:00:36.393Z,756.00
2018-04-14T07:01:36.396Z,760.00
2018-04-14T07:02:36.377Z,756.00
2018-04-14T07:03:36.361Z,768.00
2018-04-14T07:04:36.412Z,764.00
2018-04-14T07:05:36.333Z,788.00
2018-04-14T07:06:36.322Z,744.00
2018-04-14T07:07:36.311Z,660.00
2018-04-14T07:08:36.293Z,684.00
2018-04-14T07:09:36.283Z,724.00
2018-04-14T07:10:36.279Z,744.00
2018-04-14T07:11:36.258Z,752.00
2018-04-14T07:12:36.248Z,764.00
2018-04-14T07:13:36.245Z,800.00
2018-04-14T07:14:36.227Z,788.00
2018-04-14T07:15:36.212Z,804.00
2018-04-14T07:16:36.198Z,836.00
2018-04-14T07:17:36.184Z,848.00
2018-04-14T07:18:36.170Z,816.00
2018-04-14T07:19:36.159Z,856.00
2018-04-14T07:20:36.171Z,840.00
2018-04-14T07:21:36.135Z,876.00
2018-04-14T07:22:36.122Z,884.00
2018-04-14T07:23:36.109Z,872.00
2018-04-14T07:24:36.096Z,892.00
2018-04-14T07:25:36.087Z,880.00
2018-04-14T07:26:36.075Z,924.00
2018-04-14T07:27:36.055Z,872.00
2018-04-14T07:28:36.055Z,888.00
2018-04-14T07:29:36.038Z,980.00
2018-04-14T07:30:36.029Z,936.00
2018-04-14T07:31:36.019Z,1004.00
2018-04-14T07:32:36.007Z,1000.00
2018-04-14T07:33:35.991Z,1000.00
2018-04-14T07:34:35.981Z,1028.00
2018-04-14T07:35:35.970Z,1036.00
2018-04-14T07:36:35.954Z,1036.00
2018-04-14T07:37:35.951Z,1008.00
2018-04-14T07:38:35.934Z,1004.00
2018-04-14T07:39:35.925Z,1008.00
2018-04-14T07:40:35.909Z,988.00
2018-04-14T07:41:35.902Z,1024.00
2018-04-14T07:42:35.890Z,1044.00
2018-04-14T07:43:35.873Z,1016.00
2018-04-14T07:44:35.864Z,1020.00
2018-04-14T07:45:35.853Z,996.00
2018-04-14T07:46:35.844Z,992.00
2018-04-14T07:47:35.830Z,968.00
2018-04-14T07:48:35.820Z,980.00
2018-04-14T07:49:35.806Z,1088.00
2018-04-14T07:50:35.798Z,1140.00
2018-04-14T07:51:35.811Z,1168.00
2018-04-14T07:52:35.789Z,1180.00
2018-04-14T07:53:35.759Z,1196.00
2018-04-14T07:54:35.745Z,1164.00
2018-04-14T07:55:35.741Z,1244.00
2018-04-14T07:56:35.729Z,1276.00
2018-04-14T07:57:35.713Z,1192.00
2018-04-14T07:58:35.706Z,1184.00
2018-04-14T07:59:35.695Z,1172.00
2018-04-14T08:00:35.687Z,1180.00
2018-04-14T08:01:35.675Z,1216.00
2018-04-14T08:02:35.661Z,1244.00
2018-04-14T08:03:35.653Z,1136.00
2018-04-14T08:04:35.641Z,956.00
2018-04-14T08:05:35.633Z,1012.00
2018-04-14T08:06:35.615Z,1156.00
2018-04-14T08:07:35.606Z,1272.00
2018-04-14T08:08:35.594Z,1236.00
2018-04-14T08:09:35.582Z,1264.00
2018-04-14T08:10:35.567Z,1356.00
2018-04-14T08:11:35.609Z,1384.00
2018-04-14T08:12:35.550Z,1364.00
2018-04-14T08:13:35.534Z,1324.00
2018-04-14T08:14:35.522Z,1280.00
2018-04-14T08:15:35.515Z,1432.00
2018-04-14T08:16:35.505Z,1388.00
2018-04-14T08:17:35.501Z,1412.00
2018-04-14T08:18:35.479Z,1384.00
2018-04-14T08:19:35.467Z,1332.00
2018-04-14T08:20:35.458Z,1400.00
2018-04-14T08:21:35.445Z,1464.00
2018-04-14T08:22:35.441Z,1440.00
2018-04-14T08:23:35.424Z,1476.00
2018-04-14T08:24:35.412Z,1472.00
2018-04-14T08:25:35.400Z,1436.00
2018-04-14T08:26:35.392Z,1412.00
2018-04-14T08:27:35.382Z,1432.00
2018-04-14T08:28:35.371Z,1380.00
2018-04-14T08:29:35.372Z,1404.00
2018-04-14T08:30:35.350Z,1360.00
2018-04-14T08:31:35.347Z,1380.00
2018-04-14T08:32:35.329Z,1264.00
2018-04-14T08:33:35.356Z,1300.00
2018-04-14T08:34:35.305Z,1424.00
2018-04-14T08:35:35.302Z,1512.00
2018-04-14T08:36:35.287Z,1568.00
2018-04-14T08:37:35.275Z,1532.00
2018-04-14T08:38:35.260Z,1580.00
2018-04-14T08:39:35.254Z,1616.00
2018-04-14T08:40:35.242Z,1644.00
2018-04-14T08:41:35.243Z,1616.00
2018-04-14T08:42:35.229Z,1504.00
2018-04-14T08:43:35.207Z,1328.00
2018-04-14T08:44:35.197Z,1572.00
2018-04-14T08:45:35.183Z,1696.00
2018-04-14T08:46:35.173Z,1744.00
2018-04-14T08:47:35.166Z,1788.00
2018-04-14T08:48:35.156Z,1696.00
2018-04-14T08:49:35.145Z,1700.00
2018-04-14T08:50:35.139Z,1720.00
2018-04-14T08:51:35.121Z,1712.00
2018-04-14T08:52:35.113Z,1724.00
2018-04-14T08:53:35.103Z,1708.00
2018-04-14T08:54:35.089Z,1736.00
2018-04-14T08:55:35.076Z,1716.00
2018-04-14T08:56:35.067Z,1772.00
2018-04-14T08:57:35.062Z,1772.00
2018-04-14T08:58:35.047Z,1808.00
2018-04-14T08:59:35.044Z,1868.00
2018-04-14T09:00:35.027Z,1904.00
2018-04-14T09:01:35.010Z,1904.00
2018-04-14T09:02:35.008Z,1936.00
2018-04-14T09:03:34.997Z,1884.00
2018-04-14T09:04:34.999Z,1872.00
2018-04-14T09:05:34.982Z,1860.00
2018-04-14T09:06:34.965Z,1856.00
2018-04-14T09:07:34.957Z,1780.00
2018-04-14T09:08:34.960Z,1796.00
2018-04-14T09:09:34.937Z,1832.00
2018-04-14T09:10:34.923Z,1788.00
2018-04-14T09:11:34.912Z,1812.00
2018-04-14T09:12:34.904Z,1844.00
2018-04-14T09:13:34.895Z,1820.00
2018-04-14T09:14:34.884Z,1836.00
2018-04-14T09:15:34.879Z,1760.00
2018-04-14T09:16:34.865Z,1736.00
2018-04-14T09:17:34.851Z,1732.00
2018-04-14T09:18:34.855Z,1772.00
2018-04-14T09:19:34.830Z,1772.00
2018-04-14T09:20:34.817Z,1756.00
2018-04-14T09:21:34.814Z,1768.00
2018-04-14T09:22:34.804Z,1768.00
2018-04-14T09:23:34.796Z,1752.00
2018-04-14T09:24:34.786Z,1740.00
2018-04-14T09:25:34.776Z,1764.00
2018-04-14T09:26:34.763Z,1800.00
2018-04-14T09:27:34.755Z,1816.00
2018-04-14T09:28:34.754Z,1812.00
2018-04-14T09:29:34.740Z,1820.00
2018-04-14T09:30:34.729Z,1840.00
2018-04-14T09:31:34.715Z,1816.00
2018-04-14T09:32:34.705Z,1856.00
2018-04-14T09:33:34.702Z,1872.00
2018-04-14T09:34:34.695Z,1896.00
2018-04-14T09:35:34.679Z,1888.00
2018-04-14T09:36:34.671Z,1924.00
2018-04-14T09:37:34.660Z,1940.00
2018-04-14T09:38:34.648Z,1924.00
2018-04-14T09:39:34.644Z,1900.00
2018-04-14T09:40:34.633Z,1932.00
2018-04-14T09:41:34.620Z,1868.00
2018-04-14T09:42:34.612Z,1892.00
2018-04-14T09:43:34.601Z,1796.00
2018-04-14T09:44:34.599Z,1876.00
2018-04-14T09:45:34.591Z,1896.00
2018-04-14T09:46:34.624Z,1916.00
2018-04-14T09:47:34.563Z,1924.00
2018-04-14T09:48:34.552Z,1872.00
2018-04-14T09:49:34.544Z,1936.00
2018-04-14T09:50:34.540Z,1932.00
2018-04-14T09:51:34.529Z,1940.00
2018-04-14T09:52:34.512Z,1916.00
2018-04-14T09:53:34.509Z,1924.00
2018-04-14T09:54:34.496Z,1916.00
2018-04-14T09:55:34.488Z,1928.00
2018-04-14T09:56:34.478Z,1936.00
2018-04-14T09:57:34.471Z,1944.00
2018-04-14T09:58:34.459Z,1952.00
2018-04-14T09:59:34.451Z,1952.00
2018-04-14T10:00:34.441Z,1924.00
2018-04-14T10:01:34.431Z,1928.00
2018-04-14T10:02:34.420Z,1944.00
2018-04-14T10:03:34.417Z,1972.00
2018-04-14T10:04:34.407Z,1960.00
2018-04-14T10:05:34.400Z,2024.00
2018-04-14T10:06:34.380Z,2028.00
2018-04-14T10:07:34.379Z,1932.00
2018-04-14T10:08:34.368Z,1944.00
2018-04-14T10:09:34.364Z,1944.00
2018-04-14T10:10:34.389Z,1684.00
2018-04-14T10:11:34.340Z,1856.00
2018-04-14T10:12:34.329Z,1968.00
2018-04-14T10:13:34.330Z,1932.00
2018-04-14T10:14:34.317Z,1892.00
2018-04-14T10:15:34.308Z,1768.00
2018-04-14T10:16:34.289Z,1812.00
2018-04-14T10:17:34.282Z,1584.00
2018-04-14T10:18:34.276Z,1632.00
2018-04-14T10:19:34.270Z,1944.00
2018-04-14T10:20:34.264Z,1960.00
2018-04-14T10:21:34.248Z,2000.00
2018-04-14T10:22:34.243Z,2004.00
2018-04-14T10:23:34.233Z,1944.00
2018-04-14T10:24:34.224Z,1956.00
2018-04-14T10:25:34.213Z,2016.00
2018-04-14T10:26:34.211Z,2040.00
2018-04-14T10:27:34.194Z,2036.00
2018-04-14T10:28:34.187Z,2040.00
2018-04-14T10:29:34.183Z,2024.00
2018-04-14T10:30:34.169Z,1988.00
2018-04-14T10:31:34.164Z,2016.00
2018-04-14T10:32:34.158Z,2028.00
2018-04-14T10:33:34.148Z,2020.00
2018-04-14T10:34:34.136Z,1964.00
2018-04-14T10:35:34.128Z,2000.00
2018-04-14T10:36:34.116Z,2056.00
2018-04-14T10:37:34.114Z,2052.00
2018-04-14T10:38:34.104Z,2016.00
2018-04-14T10:39:34.097Z,2088.00
2018-04-14T10:40:34.085Z,2076.00
2018-04-14T10:41:34.077Z,2104.00
2018-04-14T10:42:34.063Z,2128.00
2018-04-14T10:43:34.061Z,2040.00
2018-04-14T10:44:34.049Z,2112.00
2018-04-14T10:45:34.040Z,2140.00
2018-04-14T10:46:34.034Z,2176.00
2018-04-14T10:47:34.030Z,2168.00
2018-04-14T10:48:34.025Z,2124.00
2018-04-14T10:49:34.009Z,2112.00
2018-04-14T10:50:34.000Z,2144.00
2018-04-14T10:51:33.997Z,2188.00
2018-04-14T10:52:33.985Z,2164.00
2018-04-14T10:53:33.982Z,2192.00
2018-04-14T10:54:33.970Z,2160.00
2018-04-14T10:55:33.967Z,2176.00
2018-04-14T10:56:33.959Z,2180.00
2018-04-14T10:57:33.947Z,2180.00
2018-04-14T10:58:33.940Z,2192.00
2018-04-14T10:59:33.932Z,2188.00
2018-04-14T11:00:33.928Z,2180.00
2018-04-14T11:01:33.918Z,2232.00
2018-04-14T11:02:33.908Z,2220.00
2018-04-14T11:03:33.909Z,2232.00
2018-04-14T11:04:33.899Z,2228.00
2018-04-14T11:05:33.887Z,2168.00
2018-04-14T11:06:33.877Z,2204.00
2018-04-14T11:07:33.869Z,2212.00
2018-04-14T11:08:33.864Z,2252.00
2018-04-14T11:09:33.855Z,2260.00
2018-04-14T11:10:33.855Z,2300.00
2018-04-14T11:11:33.842Z,2296.00
2018-04-14T11:12:33.828Z,2296.00
2018-04-14T11:13:33.829Z,2312.00
2018-04-14T11:14:33.814Z,2316.00
2018-04-14T11:15:33.812Z,2316.00
2018-04-14T11:16:33.813Z,2324.00
2018-04-14T11:17:33.798Z,2312.00
2018-04-14T11:18:33.793Z,2188.00
2018-04-14T11:19:33.785Z,2200.00
2018-04-14T11:20:33.792Z,2184.00
2018-04-14T11:21:33.775Z,2180.00
2018-04-14T11:22:33.768Z,2192.00
2018-04-14T11:23:33.757Z,2404.00
2018-04-14T11:24:33.749Z,2428.00
2018-04-14T11:25:33.746Z,2420.00
2018-04-14T11:26:33.735Z,2464.00
2018-04-14T11:27:33.735Z,2496.00
2018-04-14T11:28:33.727Z,2476.00
2018-04-14T11:29:33.718Z,2468.00
2018-04-14T11:30:33.710Z,2496.00
2018-04-14T11:31:33.701Z,2512.00
2018-04-14T11:32:33.697Z,2512.00
2018-04-14T11:33:33.692Z,2544.00
2018-04-14T11:34:33.685Z,2576.00
2018-04-14T11:35:33.678Z,2580.00
2018-04-14T11:36:33.670Z,2592.00
2018-04-14T11:37:33.664Z,2592.00
2018-04-14T11:38:33.663Z,2616.00
2018-04-14T11:39:33.645Z,2640.00
2018-04-14T11:40:33.644Z,2656.00
2018-04-14T11:41:33.638Z,2672.00
2018-04-14T11:42:33.626Z,2696.00
2018-04-14T11:43:33.620Z,2704.00
2018-04-14T11:44:33.631Z,2720.00
2018-04-14T11:45:33.610Z,2744.00
2018-04-14T11:46:33.601Z,2752.00
2018-04-14T11:47:33.597Z,2756.00
2018-04-14T11:48:33.593Z,2752.00
2018-04-14T11:49:33.583Z,2760.00
2018-04-14T11:50:33.575Z,2768.00
2018-04-14T11:51:33.567Z,2780.00
2018-04-14T11:52:33.560Z,2780.00
2018-04-14T11:53:33.561Z,2776.00
2018-04-14T11:54:33.553Z,2808.00
2018-04-14T11:55:33.541Z,2816.00
2018-04-14T11:56:33.542Z,2828.00
2018-04-14T11:57:33.532Z,2816.00
2018-04-14T11:58:33.524Z,2672.00
2018-04-14T11:59:33.520Z,2812.00
2018-04-14T12:00:33.509Z,2828.00
2018-04-14T12:01:33.505Z,2852.00
2018-04-14T12:02:33.499Z,2860.00
2018-04-14T12:03:33.496Z,2844.00
2018-04-14T12:04:33.495Z,2840.00
2018-04-14T12:05:33.482Z,2852.00
2018-04-14T12:06:33.476Z,2876.00
2018-04-14T12:07:33.473Z,2880.00
2018-04-14T12:08:33.463Z,2884.00
2018-04-14T12:09:33.457Z,2896.00
2018-04-14T12:10:33.451Z,2892.00
2018-04-14T12:11:33.445Z,2908.00
2018-04-14T12:12:33.441Z,2916.00
2018-04-14T12:13:33.433Z,2928.00
2018-04-14T12:14:33.433Z,2936.00
2018-04-14T12:15:33.438Z,2948.00
2018-04-14T12:16:33.420Z,2960.00
2018-04-14T12:17:33.416Z,2960.00
2018-04-14T12:18:33.405Z,2968.00
2018-04-14T12:19:33.408Z,2972.00
2018-04-14T12:20:33.400Z,2984.00
2018-04-14T12:21:33.388Z,3000.00
2018-04-14T12:22:33.379Z,3000.00
2018-04-14T12:23:33.369Z,3004.00
2018-04-14T12:24:33.377Z,3020.00
2018-04-14T12:25:33.363Z,3016.00
2018-04-14T12:26:33.356Z,3028.00
2018-04-14T12:27:33.352Z,3040.00
2018-04-14T12:28:33.351Z,3048.00
2018-04-14T12:29:33.343Z,3048.00
2018-04-14T12:30:33.327Z,3052.00
2018-04-14T12:31:33.336Z,3052.00
2018-04-14T12:32:33.325Z,3068.00
2018-04-14T12:33:33.320Z,3080.00
2018-04-14T12:34:33.315Z,3084.00
2018-04-14T12:35:33.305Z,3088.00
2018-04-14T12:36:33.313Z,3084.00
2018-04-14T12:37:33.289Z,3080.00
2018-04-14T12:38:33.285Z,3092.00